Time;durP1;ratioP1;P1;durP2;ratioP2;P2;SDS_P1;SDS_P2;PMS_P1;PMS_P2;Temp;Humidity;BMP_temperature;BMP_pressure;BME280_temperature;BME280_humidity;BME280_pressure;Samples;Min_cycle;Max_cycle;Signal;HPM_P1;HPM_P2
2023/07/07 00:04:13;;;;;;;4.73;2.80;;;;;14.20;101325.00;;;;10307796;28;20575;-79
2023/07/07 00:09:16;;;;;;;6.63;3.17;;;;;14.30;101330.00;;;;10319996;28;20288;-78
2023/07/07 00:14:18;;;;;;;6.10;3.37;;;;;14.30;101324.00;;;;10325477;28;20938;-78
2023/07/07 00:19:19;;;;;;;5.60;3.10;;;;;14.20;101322.00;;;;10320840;28;20203;-79
2023/07/07 00:24:21;;;;;;;5.20;2.80;;;;;14.10;101318.00;;;;10337064;28;20554;-78
2023/07/07 00:29:23;;;;;;;3.60;2.77;;;;;13.90;101317.00;;;;10336890;28;20232;-79
2023/07/07 00:34:26;;;;;;;6.20;3.27;;;;;13.70;101323.00;;;;10321111;28;21611;-79
2023/07/07 00:39:28;;;;;;;4.63;3.40;;;;;13.60;101319.00;;;;10311954;28;20524;-77
2023/07/07 00:45:20;;;;;;;3.53;3.10;;;;;13.50;101324.00;;;;10320757;28;21151;-76
2023/07/07 00:50:27;;;;;;;4.30;2.70;;;;;13.30;101334.00;;;;10299213;28;20230;-79
2023/07/07 00:55:33;;;;;;;4.23;3.10;;;;;13.20;101329.00;;;;10302760;28;20759;-79
2023/07/07 01:00:38;;;;;;;4.20;3.30;;;;;13.20;101325.00;;;;10322404;28;20230;-81
2023/07/07 01:05:42;;;;;;;7.00;3.40;;;;;13.10;101335.00;;;;10324605;28;20225;-78
2023/07/07 01:10:43;;;;;;;5.30;3.07;;;;;13.10;101334.00;;;;10321244;28;20214;-80
2023/07/07 01:16:12;;;;;;;5.17;2.93;;;;;13.00;101329.00;;;;10327259;28;20218;-78
2023/07/07 01:21:29;;;;;;;8.30;3.47;;;;;13.00;101321.00;;;;10310362;28;20206;-79
2023/07/07 01:26:55;;;;;;;4.50;3.67;;;;;12.90;101328.00;;;;10317458;28;20874;-77
2023/07/07 01:32:13;;;;;;;6.27;3.90;;;;;12.90;101322.00;;;;10319970;28;20233;-80
2023/07/07 01:37:14;;;;;;;5.90;3.87;;;;;12.90;101324.00;;;;10328892;28;20424;-76
2023/07/07 01:42:28;;;;;;;5.43;3.17;;;;;12.90;101320.00;;;;10326637;28;20202;-80
2023/07/07 01:47:38;;;;;;;4.70;3.00;;;;;12.80;101317.00;;;;10339611;28;20231;-79
2023/07/07 01:52:50;;;;;;;4.97;2.70;;;;;12.70;101323.00;;;;10315875;28;20674;-78
2023/07/07 01:57:59;;;;;;;5.87;3.10;;;;;12.50;101324.00;;;;10308855;28;20337;-79
2023/07/07 02:03:05;;;;;;;4.73;3.33;;;;;12.40;101322.00;;;;10321380;28;20700;-78
2023/07/07 02:08:07;;;;;;;8.27;3.17;;;;;12.30;101317.00;;;;10311118;28;20248;-77
2023/07/07 02:13:08;;;;;;;6.57;3.50;;;;;12.20;101315.00;;;;10323935;28;20214;-79
2023/07/07 02:18:10;;;;;;;7.53;4.00;;;;;12.20;101308.00;;;;10327265;23;20297;-90
2023/07/07 02:23:15;;;;;;;6.17;3.53;;;;;12.10;101320.00;;;;10266684;28;20195;-90
2023/07/07 02:28:22;;;;;;;5.30;3.57;;;;;12.00;101315.00;;;;10294431;28;21997;-91
2023/07/07 02:33:33;;;;;;;4.57;3.90;;;;;12.00;101310.00;;;;10281661;28;20403;-91
2023/07/07 02:38:56;;;;;;;6.63;4.57;;;;;12.00;101305.00;;;;10281336;28;20291;-90
2023/07/07 02:43:58;;;;;;;14.77;5.03;;;;;12.20;101301.00;;;;10306215;28;20207;-91
2023/07/07 02:49:00;;;;;;;6.07;3.87;;;;;12.20;101299.00;;;;10308509;28;20247;-90
2023/07/07 02:54:06;;;;;;;5.13;4.47;;;;;12.10;101301.00;;;;10279909;28;20483;-90
2023/07/07 02:59:08;;;;;;;8.80;4.10;;;;;12.00;101295.00;;;;10291827;28;20215;-91
2023/07/07 03:04:11;;;;;;;10.67;5.27;;;;;12.00;101290.00;;;;10284596;28;20207;-91
2023/07/07 03:09:16;;;;;;;7.47;4.30;;;;;11.90;101304.00;;;;10270166;28;20295;-91
2023/07/07 03:14:29;;;;;;;6.37;3.83;;;;;11.80;101295.00;;;;10287030;28;20333;-90
2023/07/07 03:19:32;;;;;;;6.30;4.17;;;;;11.80;101298.00;;;;10298705;28;20238;-90
2023/07/07 03:24:45;;;;;;;7.90;3.90;;;;;11.70;101300.00;;;;10294920;28;20216;-90
2023/07/07 03:30:21;;;;;;;8.00;4.73;;;;;11.80;101302.00;;;;10302848;28;20222;-91
2023/07/07 03:35:44;;;;;;;7.47;4.93;;;;;11.90;101312.00;;;;10310038;28;20215;-90
2023/07/07 03:40:47;;;;;;;11.97;5.33;;;;;12.00;101315.00;;;;10261804;28;20214;-90
2023/07/07 03:45:58;;;;;;;8.43;4.83;;;;;12.10;101313.00;;;;10279838;28;20228;-90
2023/07/07 03:51:03;;;;;;;8.00;4.90;;;;;12.20;101315.00;;;;10292753;28;20222;-91
2023/07/07 03:56:09;;;;;;;6.80;4.43;;;;;12.30;101313.00;;;;10283013;28;20211;-90
2023/07/07 04:01:13;;;;;;;7.67;4.80;;;;;12.50;101313.00;;;;10296245;28;20196;-90
2023/07/07 04:06:17;;;;;;;7.07;4.47;;;;;12.50;101318.00;;;;10307584;28;20219;-90
2023/07/07 04:11:24;;;;;;;7.97;4.50;;;;;12.90;101327.00;;;;10281037;28;20318;-91
2023/07/07 04:16:32;;;;;;;11.80;4.40;;;;;12.90;101324.00;;;;10292534;28;20214;-90
2023/07/07 04:21:37;;;;;;;7.83;4.00;;;;;13.00;101328.00;;;;10297850;28;20277;-91
2023/07/07 04:26:43;;;;;;;9.53;4.60;;;;;13.10;101337.00;;;;10298084;28;20230;-90
2023/07/07 04:31:47;;;;;;;7.77;4.47;;;;;13.20;101328.00;;;;10276615;28;20199;-90
2023/07/07 04:36:53;;;;;;;8.90;4.47;;;;;13.30;101339.00;;;;10292893;28;20327;-91
2023/07/07 04:41:55;;;;;;;4.67;3.23;;;;;13.40;101337.00;;;;10258844;23;20309;-80
2023/07/07 04:46:56;;;;;;;6.63;4.00;;;;;13.50;101331.00;;;;10231485;28;20581;-78
2023/07/07 04:52:01;;;;;;;7.03;4.00;;;;;13.60;101330.00;;;;10496290;23;20848;-91
2023/07/07 04:57:06;;;;;;;11.30;4.17;;;;;13.80;101328.00;;;;10300829;28;20208;-91
2023/07/07 05:02:08;;;;;;;8.23;3.87;;;;;14.00;101333.00;;;;10303601;28;21024;-91
2023/07/07 05:07:15;;;;;;;6.13;3.77;;;;;14.40;101338.00;;;;10296912;28;20246;-91
2023/07/07 05:12:19;;;;;;;6.97;3.80;;;;;14.80;101328.00;;;;10299110;28;20211;-91
2023/07/07 05:17:21;;;;;;;8.90;4.07;;;;;15.20;101337.00;;;;10310506;28;20231;-91
2023/07/07 05:22:28;;;;;;;4.47;3.20;;;;;15.70;101352.00;;;;10293453;28;20200;-91
2023/07/07 05:27:30;;;;;;;7.17;2.83;;;;;16.20;101349.00;;;;10300541;23;20235;-77
2023/07/07 05:32:31;;;;;;;5.57;3.40;;;;;16.60;101347.00;;;;10259994;28;20199;-77
2023/07/07 05:43:26;;;;;;;5.38;2.90;;;;;18.00;101355.00;;;;11279072;23;20320;-91
2023/07/07 05:48:30;;;;;;;4.07;3.15;;;;;18.70;101359.00;;;;10054047;29;20259;-92
2023/07/07 05:53:34;;;;;;;5.88;3.35;;;;;19.30;101351.00;;;;9995718;24;20244;-79
2023/07/07 05:58:36;;;;;;;5.68;3.03;;;;;19.90;101356.00;;;;9997323;29;20318;-77
2023/07/07 06:03:41;;;;;;;6.00;2.80;;;;;20.40;101359.00;;;;9998939;29;20322;-79
2023/07/07 06:08:42;;;;;;;4.82;2.75;;;;;20.90;101364.00;;;;10007482;29;20227;-78
2023/07/07 06:13:43;;;;;;;6.38;2.70;;;;;21.40;101359.00;;;;10001926;29;20649;-80
2023/07/07 06:18:45;;;;;;;4.40;2.65;;;;;21.60;101363.00;;;;9999839;29;21307;-78
2023/07/07 06:23:46;;;;;;;5.25;2.60;;;;;22.00;101368.00;;;;10002694;29;20211;-80
2023/07/07 06:28:47;;;;;;;3.30;2.35;;;;;22.50;101364.00;;;;10004253;29;20238;-79
2023/07/07 06:33:49;;;;;;;4.78;2.80;;;;;22.90;101374.00;;;;10002689;29;20220;-80
2023/07/07 06:38:50;;;;;;;3.60;2.33;;;;;23.40;101365.00;;;;10008393;29;20215;-80
2023/07/07 06:43:53;;;;;;;3.08;2.30;;;;;23.90;101373.00;;;;10008604;29;20204;-79
2023/07/07 06:48:56;;;;;;;4.53;2.20;;;;;24.30;101365.00;;;;9998899;29;20977;-79
2023/07/07 06:53:59;;;;;;;4.22;2.15;;;;;24.70;101368.00;;;;10001487;29;20208;-80
2023/07/07 06:59:03;;;;;;;3.88;2.20;;;;;25.10;101365.00;;;;9998419;29;20382;-79
2023/07/07 07:04:05;;;;;;;2.53;1.77;;;;;25.50;101371.00;;;;9995792;29;20726;-80
2023/07/07 07:09:07;;;;;;;4.35;1.92;;;;;25.80;101367.00;;;;10037041;29;20312;-79
2023/07/07 07:14:08;;;;;;;4.93;2.00;;;;;26.10;101369.00;;;;10059769;29;20231;-83
2023/07/07 07:19:10;;;;;;;4.05;2.00;;;;;26.40;101372.00;;;;10110535;29;20212;-79
2023/07/07 07:24:11;;;;;;;3.40;2.20;;;;;26.80;101366.00;;;;10104362;29;20208;-79
2023/07/07 07:29:14;;;;;;;2.38;2.00;;;;;27.10;101379.00;;;;10087720;29;20597;-77
2023/07/07 07:34:25;;;;;;;2.95;1.88;;;;;27.60;101380.00;;;;10108078;29;20235;-76
2023/07/07 07:39:27;;;;;;;2.78;1.90;;;;;28.00;101378.00;;;;9997544;29;20320;-80
2023/07/07 07:44:29;;;;;;;3.90;2.33;;;;;28.50;101370.00;;;;10005044;29;20896;-80
2023/07/07 07:49:31;;;;;;;4.00;2.10;;;;;29.10;101369.00;;;;9989587;29;20296;-79
2023/07/07 07:54:32;;;;;;;5.03;1.80;;;;;29.40;101374.00;;;;10040749;29;21763;-79
2023/07/07 07:59:33;;;;;;;2.10;1.75;;;;;29.40;101366.00;;;;10010536;29;20622;-80
2023/07/07 08:04:35;;;;;;;2.35;1.90;;;;;29.70;101362.00;;;;10003063;29;20211;-77
2023/07/07 08:09:36;;;;;;;3.63;1.77;;;;;30.00;101359.00;;;;10132876;24;20239;-91
2023/07/07 08:14:39;;;;;;;3.53;2.35;;;;;30.60;101359.00;;;;10024867;29;20266;-90
2023/07/07 08:19:48;;;;;;;4.07;2.30;;;;;31.00;101363.00;;;;10027841;29;20384;-91
2023/07/07 08:24:54;;;;;;;4.25;2.17;;;;;31.30;101361.00;;;;10018809;29;20280;-91
2023/07/07 08:29:56;;;;;;;3.50;2.00;;;;;31.50;101365.00;;;;10003236;29;20227;-90
2023/07/07 08:34:58;;;;;;;5.25;2.20;;;;;31.60;101374.00;;;;10031560;29;20227;-92
2023/07/07 08:40:04;;;;;;;4.15;2.42;;;;;31.90;101369.00;;;;10021486;29;20283;-91
2023/07/07 08:45:21;;;;;;;5.32;2.40;;;;;32.00;101363.00;;;;10030408;29;20216;-91
2023/07/07 08:50:37;;;;;;;4.25;2.15;;;;;32.50;101364.00;;;;10041459;29;20231;-91
2023/07/07 08:55:55;;;;;;;7.05;2.40;;;;;32.80;101369.00;;;;10051294;29;20204;-92
2023/07/07 09:01:36;;;;;;;3.65;2.10;;;;;32.90;101366.00;;;;10067242;23;20936;-80
2023/07/07 09:07:09;;;;;;;7.47;2.10;;;;;33.10;101360.00;;;;10066928;29;20712;-80
2023/07/07 09:12:30;;;;;;;3.30;2.47;;;;;33.50;101364.00;;;;10109387;29;20715;-80
2023/07/07 09:17:41;;;;;;;5.05;2.22;;;;;33.20;101355.00;;;;10114485;29;20573;-80
2023/07/07 09:28:32;;;;;;;4.63;2.60;;;;;34.10;101374.00;;;;10114082;23;20274;-91
2023/07/07 09:33:37;;;;;;;3.47;2.17;;;;;34.20;101368.00;;;;10025992;29;20271;-91
2023/07/07 09:39:16;;;;;;;4.00;2.10;;;;;34.20;101363.00;;;;10032380;29;20227;-92
2023/07/07 09:44:50;;;;;;;2.70;2.17;;;;;34.70;101362.00;;;;10026542;29;20294;-92
2023/07/07 09:50:22;;;;;;;3.95;2.40;;;;;34.80;101355.00;;;;10017153;29;20211;-91
2023/07/07 09:55:31;;;;;;;2.85;2.13;;;;;34.90;101341.00;;;;10030581;29;20216;-91
2023/07/07 10:00:35;;;;;;;4.18;2.35;;;;;35.00;101355.00;;;;10036425;29;20418;-92
2023/07/07 10:05:50;;;;;;;2.95;2.22;;;;;34.90;101342.00;;;;10093680;23;20267;-84
2023/07/07 10:11:10;;;;;;;2.83;2.40;;;;;34.80;101335.00;;;;10128460;29;20195;-83
2023/07/07 10:16:32;;;;;;;4.95;2.38;;;;;35.00;101332.00;;;;10123889;29;20595;-84
2023/07/07 10:21:34;;;;;;;3.50;2.17;;;;;35.00;101341.00;;;;10107716;29;20637;-83
2023/07/07 10:26:38;;;;;;;5.20;2.05;;;;;34.30;101331.00;;;;10111162;29;20305;-84
2023/07/07 10:31:44;;;;;;;2.97;2.00;;;;;34.40;101320.00;;;;10106799;29;20239;-84
2023/07/07 10:36:45;;;;;;;3.75;2.20;;;;;34.90;101326.00;;;;10106344;29;20220;-82
2023/07/07 10:41:47;;;;;;;4.88;2.20;;;;;35.20;101323.00;;;;10112283;29;20208;-83
2023/07/07 10:46:48;;;;;;;3.88;2.50;;;;;35.70;101327.00;;;;10117832;29;20234;-84
2023/07/07 10:52:39;;;;;;;3.65;2.22;;;;;35.50;101318.00;;;;10093418;29;20215;-84
2023/07/07 10:57:52;;;;;;;3.75;2.70;;;;;36.00;101320.00;;;;10111399;29;20227;-83
2023/07/07 11:03:29;;;;;;;3.80;2.55;;;;;36.10;101320.00;;;;10125569;29;20243;-82
2023/07/07 11:08:49;;;;;;;5.65;2.05;;;;;36.20;101319.00;;;;10118793;29;20230;-82
2023/07/07 11:14:15;;;;;;;5.95;2.42;;;;;36.20;101317.00;;;;10106698;29;20255;-81
2023/07/07 11:19:23;;;;;;;2.88;2.28;;;;;36.40;101308.00;;;;10114694;29;20665;-81
2023/07/07 11:24:32;;;;;;;4.82;2.58;;;;;36.20;101306.00;;;;10110422;29;20570;-83
2023/07/07 11:29:57;;;;;;;4.15;2.65;;;;;36.10;101302.00;;;;10117305;29;20310;-83
2023/07/07 11:35:01;;;;;;;4.38;2.50;;;;;36.30;101301.00;;;;10122779;29;20721;-82
2023/07/07 11:40:47;;;;;;;4.25;3.10;;;;;36.90;101289.00;;;;10113630;29;20287;-79
2023/07/07 11:46:14;;;;;;;4.65;2.33;;;;;37.30;101289.00;;;;10109930;29;20231;-84
2023/07/07 11:51:34;;;;;;;3.63;2.80;;;;;37.20;101291.00;;;;10125215;29;20206;-84
2023/07/07 11:56:50;;;;;;;4.60;2.28;;;;;37.00;101298.00;;;;10120080;29;20279;-82
2023/07/07 12:01:53;;;;;;;6.88;2.75;;;;;37.10;101284.00;;;;10119074;29;20242;-81
2023/07/07 12:07:29;;;;;;;3.20;2.90;;;;;37.30;101279.00;;;;10101328;29;20219;-82
2023/07/07 12:13:03;;;;;;;5.38;3.08;;;;;37.00;101276.00;;;;10099991;29;20249;-82
2023/07/07 12:18:13;;;;;;;4.88;3.30;;;;;36.60;101279.00;;;;10104985;29;20216;-74
2023/07/07 12:23:18;;;;;;;5.38;3.28;;;;;36.60;101266.00;;;;10111739;29;20219;-74
2023/07/07 12:28:19;;;;;;;7.43;2.67;;;;;36.60;101255.00;;;;10112472;29;20222;-74
2023/07/07 12:33:20;;;;;;;5.38;3.20;;;;;36.50;101248.00;;;;10111351;29;20206;-74
2023/07/07 12:38:26;;;;;;;7.13;3.03;;;;;36.60;101242.00;;;;10112677;29;20563;-74
2023/07/07 12:43:35;;;;;;;3.90;3.33;;;;;36.50;101235.00;;;;10111216;29;20204;-74
2023/07/07 12:48:37;;;;;;;4.30;3.42;;;;;36.40;101237.00;;;;10115102;29;20682;-74
2023/07/07 12:53:43;;;;;;;4.90;3.70;;;;;36.90;101233.00;;;;10108134;29;20282;-74
2023/07/07 12:58:53;;;;;;;3.60;3.25;;;;;37.50;101225.00;;;;10110326;29;20201;-74
2023/07/07 13:04:16;;;;;;;3.90;3.20;;;;;37.30;101225.00;;;;10108204;29;20211;-79
2023/07/07 13:09:20;;;;;;;5.43;4.25;;;;;36.80;101222.00;;;;10115504;29;20314;-73
2023/07/07 13:14:25;;;;;;;5.95;3.58;;;;;37.00;101221.00;;;;10113650;29;20228;-74
2023/07/07 13:19:27;;;;;;;6.75;3.38;;;;;36.90;101223.00;;;;10117203;29;20219;-75
2023/07/07 13:24:38;;;;;;;10.77;3.92;;;;;36.80;101228.00;;;;10104202;29;20223;-74
2023/07/07 13:29:40;;;;;;;6.03;3.65;;;;;36.40;101218.00;;;;10107954;29;20223;-74
2023/07/07 13:34:42;;;;;;;4.43;3.67;;;;;36.50;101221.00;;;;10106056;29;20212;-75
2023/07/07 13:39:43;;;;;;;6.43;3.90;;;;;36.70;101215.00;;;;10109936;29;20215;-75
2023/07/07 13:44:45;;;;;;;6.60;3.38;;;;;36.80;101218.00;;;;10120433;29;20211;-76
2023/07/07 13:49:46;;;;;;;4.47;4.07;;;;;36.70;101212.00;;;;10114778;29;20228;-74
2023/07/07 13:54:49;;;;;;;4.22;3.80;;;;;36.20;101203.00;;;;10111150;29;20207;-74
2023/07/07 13:59:50;;;;;;;5.18;4.68;;;;;36.30;101206.00;;;;10112664;29;20207;-74
2023/07/07 14:05:00;;;;;;;9.77;4.47;;;;;36.60;101196.00;;;;10110597;29;20215;-74
2023/07/07 14:10:12;;;;;;;4.68;4.28;;;;;36.50;101202.00;;;;10100984;29;20220;-74
2023/07/07 14:15:14;;;;;;;5.78;3.60;;;;;36.60;101200.00;;;;10111375;29;20214;-74
2023/07/07 14:20:23;;;;;;;4.45;4.05;;;;;36.20;101196.00;;;;10097727;29;20212;-75
2023/07/07 14:25:25;;;;;;;5.10;3.72;;;;;35.70;101189.00;;;;10108319;29;20212;-79
2023/07/07 14:30:27;;;;;;;7.93;4.15;;;;;35.30;101188.00;;;;10104495;29;20231;-74
2023/07/07 14:35:31;;;;;;;4.78;3.90;;;;;34.60;101183.00;;;;10107670;29;20626;-74
2023/07/07 14:40:43;;;;;;;3.92;3.60;;;;;34.20;101178.00;;;;10110359;29;20212;-74
2023/07/07 14:45:44;;;;;;;4.50;3.65;;;;;34.00;101168.00;;;;10105024;29;20208;-74
2023/07/07 14:50:46;;;;;;;5.07;4.28;;;;;34.10;101175.00;;;;10111142;29;20208;-74
2023/07/07 14:55:52;;;;;;;5.00;3.88;;;;;34.40;101168.00;;;;10111387;29;20200;-75
2023/07/07 15:01:05;;;;;;;7.82;4.60;;;;;34.60;101159.00;;;;10112204;29;20631;-74
2023/07/07 15:06:09;;;;;;;5.00;4.07;;;;;34.90;101160.00;;;;10110521;29;20235;-80
2023/07/07 15:11:12;;;;;;;7.60;4.90;;;;;35.40;101147.00;;;;10106287;29;20666;-80
2023/07/07 15:16:19;;;;;;;5.47;4.28;;;;;35.00;101152.00;;;;10113853;29;20254;-74
2023/07/07 15:21:26;;;;;;;8.57;3.97;;;;;34.40;101154.00;;;;10111440;29;20215;-75
2023/07/07 15:26:30;;;;;;;7.57;4.13;;;;;34.30;101143.00;;;;10112674;29;20598;-75
2023/07/07 15:31:31;;;;;;;4.68;4.28;;;;;34.10;101140.00;;;;10102040;29;20286;-75
2023/07/07 15:36:33;;;;;;;6.45;4.85;;;;;33.70;101135.00;;;;10104997;29;20199;-74
2023/07/07 15:41:34;;;;;;;6.38;4.60;;;;;33.90;101131.00;;;;10108036;29;20286;-73
2023/07/07 15:46:39;;;;;;;5.35;4.45;;;;;33.80;101130.00;;;;10090439;29;20255;-74
2023/07/07 15:51:50;;;;;;;5.57;4.75;;;;;33.80;101126.00;;;;10099362;29;20210;-74
2023/07/07 15:56:54;;;;;;;6.72;4.57;;;;;33.80;101128.00;;;;10108676;29;20307;-74
2023/07/07 16:01:55;;;;;;;8.00;4.70;;;;;33.60;101125.00;;;;10103817;29;20238;-75
2023/07/07 16:06:57;;;;;;;5.97;4.53;;;;;33.40;101116.00;;;;10103673;29;20657;-74
2023/07/07 16:11:58;;;;;;;6.00;4.60;;;;;33.20;101112.00;;;;10112165;29;20206;-75
2023/07/07 16:16:59;;;;;;;6.18;4.63;;;;;33.00;101118.00;;;;10108628;29;20214;-74
2023/07/07 16:22:00;;;;;;;4.50;4.10;;;;;32.90;101104.00;;;;10112172;29;20208;-74
2023/07/07 16:27:02;;;;;;;6.68;4.53;;;;;32.90;101104.00;;;;10113588;29;20262;-74
2023/07/07 16:32:03;;;;;;;9.45;4.53;;;;;32.90;101102.00;;;;10111804;29;20210;-74
2023/07/07 16:37:12;;;;;;;6.15;4.47;;;;;32.80;101092.00;;;;10103948;29;20196;-78
2023/07/07 16:42:14;;;;;;;6.93;4.20;;;;;32.80;101093.00;;;;10108651;29;20670;-75
2023/07/07 16:47:16;;;;;;;5.38;4.25;;;;;32.50;101091.00;;;;10116112;29;20216;-74
2023/07/07 16:52:17;;;;;;;6.15;4.72;;;;;32.40;101090.00;;;;10106554;29;20215;-74
2023/07/07 16:57:19;;;;;;;8.48;4.85;;;;;32.10;101079.00;;;;10101635;29;20682;-74
2023/07/07 17:02:20;;;;;;;6.32;4.32;;;;;31.90;101083.00;;;;10099537;29;20339;-75
2023/07/07 17:07:21;;;;;;;6.93;4.75;;;;;31.70;101078.00;;;;10113987;29;20227;-74
2023/07/07 17:12:23;;;;;;;6.22;4.45;;;;;31.40;101085.00;;;;10098604;29;20231;-74
2023/07/07 17:17:24;;;;;;;7.38;4.55;;;;;31.10;101083.00;;;;10115259;29;20200;-73
2023/07/07 17:22:26;;;;;;;5.93;4.60;;;;;30.60;101082.00;;;;10105109;29;20575;-74
2023/07/07 17:27:27;;;;;;;5.82;4.43;;;;;30.20;101085.00;;;;10107987;29;20279;-75
2023/07/07 17:32:28;;;;;;;12.38;5.22;;;;;29.90;101085.00;;;;10112988;29;20200;-75
2023/07/07 17:37:30;;;;;;;9.73;5.15;;;;;29.50;101077.00;;;;10109338;29;20294;-74
2023/07/07 17:42:31;;;;;;;20.27;5.50;;;;;29.30;101081.00;;;;10072377;29;20218;-80
2023/07/07 17:47:32;;;;;;;8.75;4.82;;;;;29.10;101084.00;;;;10034658;29;20219;-79
2023/07/07 17:52:34;;;;;;;7.38;5.10;;;;;28.90;101085.00;;;;10016091;29;20270;-79
2023/07/07 17:57:35;;;;;;;7.45;4.63;;;;;28.60;101081.00;;;;10020177;29;20226;-80
2023/07/07 18:02:36;;;;;;;8.73;5.00;;;;;28.40;101076.00;;;;10031071;29;20220;-74
2023/07/07 18:07:37;;;;;;;8.98;4.97;;;;;28.30;101081.00;;;;10073818;29;20230;-76
2023/07/07 18:12:39;;;;;;;10.38;5.20;;;;;28.20;101079.00;;;;10106962;29;20300;-75
2023/07/07 18:17:40;;;;;;;8.02;5.60;;;;;28.10;101086.00;;;;10031788;29;20574;-79
2023/07/07 18:22:54;;;;;;;11.48;5.10;;;;;27.90;101085.00;;;;10014032;29;20652;-79
2023/07/07 18:27:56;;;;;;;10.07;5.25;;;;;27.70;101087.00;;;;10031361;29;20215;-79
2023/07/07 18:32:57;;;;;;;9.40;6.07;;;;;27.50;101090.00;;;;10042981;29;20262;-74
2023/07/07 18:37:59;;;;;;;13.07;5.50;;;;;27.20;101084.00;;;;10051657;29;20966;-80
2023/07/07 18:43:01;;;;;;;8.10;5.65;;;;;27.00;101084.00;;;;10037582;29;20250;-81
2023/07/07 18:48:08;;;;;;;7.88;5.32;;;;;26.80;101080.00;;;;10009383;29;20931;-81
2023/07/07 18:53:10;;;;;;;7.65;5.25;;;;;26.60;101081.00;;;;10026979;29;20316;-79
2023/07/07 18:58:11;;;;;;;7.13;5.25;;;;;26.30;101080.00;;;;10025335;29;20434;-80
2023/07/07 19:03:13;;;;;;;6.80;5.15;;;;;26.10;101085.00;;;;10027693;29;20199;-81
2023/07/07 19:08:15;;;;;;;6.10;4.75;;;;;25.90;101087.00;;;;10001670;29;21610;-81
2023/07/07 19:13:23;;;;;;;5.25;4.75;;;;;25.60;101078.00;;;;10036231;29;20231;-81
2023/07/07 19:18:28;;;;;;;8.95;4.85;;;;;25.40;101079.00;;;;10053794;29;20196;-78
2023/07/07 19:23:30;;;;;;;7.32;5.07;;;;;25.20;101077.00;;;;10060276;29;20212;-76
2023/07/07 19:28:33;;;;;;;5.95;5.15;;;;;25.00;101077.00;;;;10108733;29;20279;-78
2023/07/07 19:33:34;;;;;;;11.85;5.53;;;;;24.80;101086.00;;;;10110151;29;20200;-75
2023/07/07 19:38:36;;;;;;;7.38;4.95;;;;;24.70;101088.00;;;;10107692;29;20208;-76
2023/07/07 19:43:37;;;;;;;7.07;4.97;;;;;24.50;101085.00;;;;10102678;29;20230;-76
2023/07/07 19:48:38;;;;;;;11.93;6.18;;;;;24.30;101081.00;;;;10132302;29;20266;-76
2023/07/07 19:53:39;;;;;;;7.22;5.43;;;;;24.00;101080.00;;;;10118869;29;20208;-76
2023/07/07 19:58:42;;;;;;;9.35;5.07;;;;;23.70;101079.00;;;;10099659;29;20210;-76
2023/07/07 20:03:44;;;;;;;10.63;5.93;;;;;23.40;101077.00;;;;10101927;29;20658;-75
2023/07/07 20:08:47;;;;;;;8.68;5.75;;;;;23.10;101078.00;;;;10101685;29;20227;-76
2023/07/07 20:13:48;;;;;;;7.65;6.22;;;;;22.80;101071.00;;;;10082653;29;20235;-75
2023/07/07 20:18:51;;;;;;;8.45;5.68;;;;;22.50;101079.00;;;;10107429;29;20222;-76
2023/07/07 20:23:52;;;;;;;9.75;5.22;;;;;22.20;101076.00;;;;10121675;29;20204;-75
2023/07/07 20:28:56;;;;;;;9.43;5.30;;;;;22.00;101078.00;;;;10112703;29;20227;-75
2023/07/07 20:33:57;;;;;;;14.82;5.43;;;;;21.90;101075.00;;;;10092394;29;20219;-76
2023/07/07 20:38:58;;;;;;;7.82;5.03;;;;;21.70;101080.00;;;;10128706;29;20207;-76
2023/07/07 20:43:59;;;;;;;14.50;5.70;;;;;21.50;101078.00;;;;10103019;29;20207;-76
2023/07/07 20:49:01;;;;;;;14.32;6.20;;;;;21.40;101073.00;;;;10102022;29;20279;-76
2023/07/07 20:54:03;;;;;;;11.80;6.38;;;;;21.20;101074.00;;;;10112898;29;20200;-76
2023/07/07 20:59:12;;;;;;;10.27;5.70;;;;;21.10;101075.00;;;;10137872;29;20267;-76
2023/07/07 21:04:26;;;;;;;10.35;5.75;;;;;20.90;101071.00;;;;10113203;29;20212;-76
2023/07/07 21:09:27;;;;;;;10.70;5.95;;;;;20.70;101079.00;;;;10098660;29;20702;-76
2023/07/07 21:14:29;;;;;;;18.02;6.78;;;;;20.60;101076.00;;;;10123674;29;20264;-76
2023/07/07 21:19:30;;;;;;;9.75;4.82;;;;;20.40;101070.00;;;;10134677;29;20203;-76
2023/07/07 21:24:31;;;;;;;16.33;6.40;;;;;20.30;101067.00;;;;10114224;29;20295;-75
2023/07/07 21:29:32;;;;;;;10.82;5.28;;;;;20.30;101076.00;;;;10114629;29;20220;-76
2023/07/07 21:34:34;;;;;;;14.57;5.90;;;;;20.20;101070.00;;;;10105440;29;20306;-75
2023/07/07 21:39:35;;;;;;;11.35;5.85;;;;;20.00;101072.00;;;;10104946;29;20212;-76
2023/07/07 21:44:37;;;;;;;14.20;6.53;;;;;19.90;101074.00;;;;10136290;29;20267;-76
2023/07/07 21:49:38;;;;;;;7.03;5.20;;;;;19.90;101077.00;;;;10137314;29;20231;-76
2023/07/07 21:54:40;;;;;;;8.23;5.88;;;;;19.80;101073.00;;;;10138329;29;20566;-76
2023/07/07 21:59:42;;;;;;;10.20;5.15;;;;;19.70;101076.00;;;;10136320;29;20553;-75
2023/07/07 22:04:43;;;;;;;8.55;4.97;;;;;19.80;101070.00;;;;10082075;29;20212;-75
2023/07/07 22:09:44;;;;;;;10.85;5.65;;;;;19.80;101068.00;;;;10085257;29;20300;-75
2023/07/07 22:14:45;;;;;;;8.23;4.88;;;;;19.70;101068.00;;;;10095719;29;20199;-76
2023/07/07 22:19:47;;;;;;;9.45;5.10;;;;;19.70;101068.00;;;;10112897;29;20223;-75
2023/07/07 22:24:48;;;;;;;8.30;4.38;;;;;19.60;101068.00;;;;10111302;29;20567;-76
2023/07/07 22:29:49;;;;;;;8.98;4.97;;;;;19.50;101077.00;;;;10125511;29;20627;-76
2023/07/07 22:34:50;;;;;;;8.25;4.82;;;;;19.40;101074.00;;;;10137033;29;20208;-76
2023/07/07 22:39:51;;;;;;;12.55;4.95;;;;;19.20;101076.00;;;;10133213;29;20578;-75
2023/07/07 22:44:53;;;;;;;9.35;5.05;;;;;19.20;101061.00;;;;10060591;29;20723;-81
2023/07/07 22:49:54;;;;;;;7.88;5.13;;;;;19.00;101067.00;;;;10037738;29;20251;-75
2023/07/07 22:54:56;;;;;;;9.07;5.25;;;;;18.90;101059.00;;;;10137123;29;20327;-76
2023/07/07 22:59:57;;;;;;;7.78;4.85;;;;;18.70;101059.00;;;;10084989;29;20595;-76
2023/07/07 23:04:58;;;;;;;8.32;5.07;;;;;18.70;101052.00;;;;10137085;29;20282;-75
2023/07/07 23:10:00;;;;;;;7.07;4.97;;;;;18.60;101056.00;;;;10104961;29;20692;-75
2023/07/07 23:15:01;;;;;;;7.05;5.35;;;;;18.50;101055.00;;;;10120208;29;20279;-75
2023/07/07 23:20:22;;;;;;;8.25;5.60;;;;;18.50;101055.00;;;;10135205;29;20221;-77
2023/07/07 23:25:25;;;;;;;8.55;5.50;;;;;18.40;101051.00;;;;10096508;29;20248;-75
2023/07/07 23:30:37;;;;;;;6.75;4.65;;;;;18.30;101046.00;;;;10117215;29;20239;-76
2023/07/07 23:35:41;;;;;;;9.70;4.97;;;;;18.30;101047.00;;;;10107945;29;20567;-76
2023/07/07 23:40:43;;;;;;;6.85;5.25;;;;;18.20;101052.00;;;;10101928;29;20257;-76
2023/07/07 23:45:46;;;;;;;7.40;5.38;;;;;18.10;101052.00;;;;10133387;29;20282;-75
2023/07/07 23:50:59;;;;;;;7.68;4.85;;;;;18.00;101055.00;;;;10125302;29;20236;-76
2023/07/07 23:56:01;;;;;;;10.85;5.07;;;;;17.80;101051.00;;;;10115944;29;20214;-75
